CGF weather

Cuyahoga County Airport
Cleveland, Ohio, United States

Public forecast

Using degrees Fahrenheit for public forecast. Weather courtesy of forecast.io.

Current aviation weather report (METAR) for Cuyahoga County Airport

Retrieved 2019/10/20 00:45 UTC (1 hour ago):

KCGF 200045Z 15005KT 20SM BKN150 12/04 A2986

Aviation forecast (TAF) for Cuyahoga County Airport

Forecast is more than 12 hours old.

Retrieved 2016/07/24 12:26 UTC (3 years ago):

TAF KCGF 241126Z 2412/2512 18008KT P6SM BKN060 OVC200 FM241500 25010KT P6SM SCT035 BKN200 FM242000 27008KT P6SM VCTS BKN040CB OVC060 FM242300 21005KT P6SM SCT120 BKN200